createdAt,value
2019-01-19T00:00:14.286Z,518.87
2019-01-19T00:01:14.269Z,516.66
2019-01-19T00:02:14.268Z,513.89
2019-01-19T00:03:14.265Z,518.15
2019-01-19T00:04:14.281Z,506.70
2019-01-19T00:05:14.229Z,516.83
2019-01-19T00:06:14.232Z,520.33
2019-01-19T00:09:21.076Z,509.65
2019-01-19T00:10:21.076Z,516.13
2019-01-19T00:11:21.045Z,517.65
2019-01-19T00:12:28.910Z,520.18
2019-01-19T00:13:21.183Z,517.91
2019-01-19T00:14:21.101Z,518.70
2019-01-19T00:15:21.003Z,519.37
2019-01-19T00:16:21.073Z,515.38
2019-01-19T00:17:20.974Z,519.01
2019-01-19T00:18:20.932Z,510.50
2019-01-19T00:19:20.936Z,519.30
2019-01-19T00:20:20.954Z,514.67
2019-01-19T00:21:28.909Z,520.00
2019-01-19T00:22:20.915Z,520.63
2019-01-19T00:23:20.956Z,513.41
2019-01-19T00:24:20.942Z,520.15
2019-01-19T00:25:20.922Z,519.93
2019-01-19T00:26:20.841Z,521.30
2019-01-19T00:27:20.859Z,521.44
2019-01-19T00:28:20.880Z,513.03
2019-01-19T00:29:20.850Z,517.38
2019-01-19T00:30:20.813Z,516.51
2019-01-19T00:31:21.429Z,514.54
2019-01-19T00:32:20.819Z,508.11
2019-01-19T00:33:20.776Z,509.15
2019-01-19T00:34:20.779Z,516.24
2019-01-19T00:35:20.807Z,509.97
2019-01-19T00:36:20.741Z,509.91
2019-01-19T00:37:22.926Z,504.76
2019-01-19T00:38:20.755Z,512.54
2019-01-19T00:39:20.744Z,512.86
2019-01-19T00:40:20.692Z,518.32
2019-01-19T00:41:20.684Z,520.04
2019-01-19T00:42:20.687Z,518.43
2019-01-19T00:43:20.679Z,515.36
2019-01-19T00:44:20.693Z,514.55
2019-01-19T00:45:20.649Z,513.91
2019-01-19T00:46:20.649Z,514.01
2019-01-19T00:47:20.665Z,516.81
2019-01-19T00:48:20.614Z,513.59
2019-01-19T00:49:20.634Z,514.28
2019-01-19T00:50:20.613Z,515.02
2019-01-19T00:51:20.615Z,514.76
2019-01-19T00:52:20.560Z,512.31
2019-01-19T00:53:20.560Z,513.29
2019-01-19T00:54:20.903Z,517.21
2019-01-19T00:55:20.545Z,515.96
2019-01-19T00:56:20.523Z,516.87
2019-01-19T00:57:20.530Z,511.00
2019-01-19T00:58:20.521Z,513.93
2019-01-19T00:59:20.525Z,508.78
2019-01-19T01:00:20.491Z,510.28
2019-01-19T01:01:20.484Z,517.08
2019-01-19T01:02:20.474Z,511.93
2019-01-19T01:03:20.460Z,513.89
2019-01-19T01:04:20.468Z,518.32
2019-01-19T01:05:25.250Z,516.43
2019-01-19T01:07:31.999Z,511.28
2019-01-19T01:08:39.136Z,518.75
2019-01-19T01:09:31.184Z,515.52
2019-01-19T01:10:38.065Z,519.09
2019-01-19T01:11:39.063Z,514.51
2019-01-19T01:12:39.601Z,511.17
2019-01-19T01:13:31.072Z,516.39
2019-01-19T01:14:31.084Z,513.01
2019-01-19T01:15:30.946Z,511.10
2019-01-19T01:16:30.980Z,513.98
2019-01-19T01:17:30.941Z,512.47
2019-01-19T01:18:30.955Z,514.25
2019-01-19T01:19:30.958Z,515.20
2019-01-19T01:20:39.610Z,511.50
2019-01-19T01:21:30.944Z,512.15
2019-01-19T01:22:31.038Z,515.17
2019-01-19T01:23:30.894Z,513.52
2019-01-19T01:24:30.898Z,519.33
2019-01-19T01:25:38.919Z,510.89
2019-01-19T01:26:37.924Z,513.90
2019-01-19T01:27:38.927Z,514.28
2019-01-19T01:28:37.929Z,516.76
2019-01-19T01:29:30.897Z,514.23
2019-01-19T01:30:38.826Z,508.73
2019-01-19T01:31:38.661Z,511.38
2019-01-19T01:32:30.798Z,512.68
2019-01-19T01:33:39.703Z,505.25
2019-01-19T01:39:11.826Z,507.29
2019-01-19T01:40:11.856Z,514.44
2019-01-19T01:41:11.816Z,508.04
2019-01-19T01:42:11.740Z,512.04
2019-01-19T01:43:11.805Z,511.15
2019-01-19T01:44:11.738Z,509.10
2019-01-19T01:45:11.751Z,514.99
2019-01-19T01:46:11.699Z,510.67
2019-01-19T01:47:11.702Z,511.88
2019-01-19T01:48:11.693Z,517.52
2019-01-19T01:49:11.696Z,513.96
2019-01-19T01:50:11.698Z,518.84
2019-01-19T01:51:11.680Z,515.44
2019-01-19T01:52:11.662Z,513.47
2019-01-19T01:53:12.641Z,518.89
2019-01-19T01:54:11.679Z,519.53
2019-01-19T01:55:11.631Z,518.95
2019-01-19T01:56:11.617Z,511.71
2019-01-19T01:57:11.601Z,509.96
2019-01-19T01:58:11.597Z,514.07
2019-01-19T01:59:11.571Z,514.96
2019-01-19T02:00:11.574Z,514.70
2019-01-19T02:01:11.576Z,514.27
2019-01-19T02:02:11.538Z,513.67
2019-01-19T02:03:11.516Z,514.30
2019-01-19T02:04:11.539Z,515.99
2019-01-19T02:05:14.166Z,515.72
2019-01-19T02:06:11.499Z,513.45
2019-01-19T02:07:11.519Z,515.53
2019-01-19T02:08:11.495Z,513.63
2019-01-19T02:10:23.108Z,505.82
2019-01-19T02:11:31.204Z,516.92
2019-01-19T02:12:23.187Z,515.73
2019-01-19T02:13:23.165Z,511.73
2019-01-19T02:14:23.093Z,516.62
2019-01-19T02:15:23.030Z,514.20
2019-01-19T02:16:23.014Z,515.57
2019-01-19T02:17:31.143Z,513.64
2019-01-19T02:18:23.135Z,515.05
2019-01-19T02:19:23.059Z,513.70
2019-01-19T02:20:24.049Z,517.59
2019-01-19T02:21:22.997Z,513.46
2019-01-19T02:22:22.959Z,511.36
2019-01-19T02:23:22.960Z,514.07
2019-01-19T02:24:22.943Z,512.61
2019-01-19T02:25:22.973Z,513.08
2019-01-19T02:26:23.498Z,513.60
2019-01-19T02:27:22.943Z,517.04
2019-01-19T02:28:22.904Z,514.09
2019-01-19T02:29:22.884Z,511.38
2019-01-19T02:30:22.905Z,512.38
2019-01-19T02:31:22.877Z,514.27
2019-01-19T02:32:22.862Z,509.53
2019-01-19T02:33:22.893Z,508.76
2019-01-19T02:34:22.948Z,513.75
2019-01-19T02:35:22.843Z,513.01
2019-01-19T02:36:22.834Z,515.54
2019-01-19T02:37:22.808Z,513.57
2019-01-19T02:38:22.796Z,513.17
2019-01-19T02:39:22.757Z,513.60
2019-01-19T02:40:22.784Z,509.64
2019-01-19T02:41:23.508Z,512.49
2019-01-19T02:42:22.750Z,508.44
2019-01-19T02:43:22.773Z,507.56
2019-01-19T02:44:22.738Z,511.87
2019-01-19T02:45:22.725Z,516.64
2019-01-19T02:46:30.839Z,514.51
2019-01-19T02:47:30.539Z,514.90
2019-01-19T02:48:30.594Z,515.10
2019-01-19T02:49:31.615Z,511.50
2019-01-19T02:50:23.095Z,519.13
2019-01-19T02:51:22.640Z,516.31
2019-01-19T02:52:22.738Z,518.05
2019-01-19T02:53:22.612Z,513.80
2019-01-19T02:54:22.607Z,516.59
2019-01-19T02:55:22.645Z,509.85
2019-01-19T02:56:22.659Z,508.19
2019-01-19T02:57:22.605Z,512.76
2019-01-19T02:58:22.596Z,515.92
2019-01-19T02:59:22.583Z,507.02
2019-01-19T03:00:22.574Z,516.93
2019-01-19T03:01:22.537Z,514.38
2019-01-19T03:02:22.618Z,518.67
2019-01-19T03:03:23.070Z,517.08
2019-01-19T03:04:23.066Z,512.27
2019-01-19T03:05:22.512Z,513.53
2019-01-19T03:06:29.591Z,517.92
2019-01-19T03:07:30.168Z,515.49
2019-01-19T03:08:29.603Z,512.36
2019-01-19T03:09:30.543Z,513.89
2019-01-19T03:10:22.525Z,513.58
2019-01-19T03:11:22.498Z,519.19
2019-01-19T03:12:22.410Z,522.81
2019-01-19T03:13:22.413Z,514.06
2019-01-19T03:14:22.431Z,520.03
2019-01-19T03:15:22.408Z,518.21
2019-01-19T03:16:22.387Z,519.45
2019-01-19T03:17:22.375Z,517.61
2019-01-19T03:18:22.370Z,511.48
2019-01-19T03:19:22.346Z,511.36
2019-01-19T03:20:22.346Z,508.24
2019-01-19T03:21:22.337Z,518.49
2019-01-19T03:22:22.314Z,521.51
2019-01-19T03:23:23.164Z,517.14
2019-01-19T03:24:22.333Z,518.73
2019-01-19T03:25:22.308Z,512.41
2019-01-19T03:26:22.303Z,512.83
2019-01-19T03:27:22.259Z,513.37
2019-01-19T03:28:22.255Z,513.54
2019-01-19T03:29:22.255Z,511.89
2019-01-19T03:30:22.279Z,513.33
2019-01-19T03:31:22.247Z,516.63
2019-01-19T03:32:22.232Z,512.30
2019-01-19T03:33:22.248Z,509.85
2019-01-19T03:34:22.207Z,510.57
2019-01-19T03:35:22.250Z,517.81
2019-01-19T03:36:22.183Z,514.94
2019-01-19T03:37:22.184Z,517.80
2019-01-19T03:38:22.211Z,522.51
2019-01-19T03:39:22.673Z,519.41
2019-01-19T03:40:22.722Z,519.89
2019-01-19T03:41:22.148Z,520.82
2019-01-19T03:42:22.151Z,518.50
2019-01-19T03:43:22.111Z,519.26
2019-01-19T03:44:22.132Z,521.72
2019-01-19T03:45:22.099Z,514.80
2019-01-19T03:46:22.073Z,518.17
2019-01-19T03:47:22.079Z,517.91
2019-01-19T03:48:22.040Z,512.09
2019-01-19T03:49:22.036Z,514.02
2019-01-19T03:50:22.052Z,519.49
2019-01-19T03:51:22.660Z,518.16
2019-01-19T03:52:22.021Z,517.77
2019-01-19T03:53:21.991Z,521.88
2019-01-19T03:54:21.988Z,515.59
2019-01-19T03:55:21.983Z,513.39
2019-01-19T03:56:21.990Z,516.94
2019-01-19T03:57:21.955Z,509.80
2019-01-19T03:58:21.956Z,513.62
2019-01-19T03:59:21.934Z,514.26
2019-01-19T04:00:21.926Z,512.00
2019-01-19T04:01:21.923Z,517.37
2019-01-19T04:02:21.895Z,509.80
2019-01-19T04:03:21.880Z,519.79
2019-01-19T04:04:21.918Z,517.23
2019-01-19T04:07:46.781Z,514.09
2019-01-19T04:08:45.949Z,511.55
2019-01-19T04:09:45.983Z,521.22
2019-01-19T04:10:46.008Z,519.18
2019-01-19T04:11:45.924Z,523.09
2019-01-19T04:12:45.867Z,514.11
2019-01-19T04:13:45.806Z,512.62
2019-01-19T04:14:45.855Z,520.43
2019-01-19T04:15:45.870Z,524.51
2019-01-19T04:16:45.817Z,521.11
2019-01-19T04:17:45.886Z,519.46
2019-01-19T04:18:45.806Z,518.74
2019-01-19T04:19:45.789Z,518.30
2019-01-19T04:20:45.838Z,520.26
2019-01-19T04:21:45.780Z,517.12
2019-01-19T04:22:45.746Z,511.29
2019-01-19T04:23:45.799Z,521.97
2019-01-19T04:24:45.767Z,524.05
2019-01-19T04:25:45.802Z,514.23
2019-01-19T04:26:45.743Z,512.45
2019-01-19T04:27:45.695Z,519.41
2019-01-19T04:28:45.725Z,515.34
2019-01-19T04:29:45.737Z,509.56
2019-01-19T04:30:45.698Z,516.41
2019-01-19T04:31:45.667Z,512.93
2019-01-19T04:32:45.658Z,516.05
2019-01-19T04:33:45.656Z,514.04
2019-01-19T04:34:45.654Z,506.67
2019-01-19T04:35:45.641Z,514.61
2019-01-19T04:36:45.637Z,515.94
2019-01-19T04:37:45.639Z,511.23
2019-01-19T04:38:45.592Z,516.03
2019-01-19T04:39:45.575Z,514.54
2019-01-19T04:40:45.648Z,515.49
2019-01-19T04:41:45.709Z,509.95
2019-01-19T04:42:45.576Z,515.14
2019-01-19T04:43:45.531Z,515.20
2019-01-19T04:44:45.507Z,513.64
2019-01-19T04:45:45.535Z,511.76
2019-01-19T04:46:45.495Z,520.18
2019-01-19T04:47:45.485Z,520.86
2019-01-19T04:48:45.496Z,521.20
2019-01-19T04:49:45.466Z,519.61
2019-01-19T04:50:45.468Z,510.57
2019-01-19T04:51:45.467Z,516.73
2019-01-19T04:52:45.462Z,519.77
2019-01-19T04:53:45.448Z,513.66
2019-01-19T04:54:45.423Z,515.82
2019-01-19T04:55:45.455Z,516.05
2019-01-19T04:56:45.452Z,525.02
2019-01-19T04:57:45.387Z,523.77
2019-01-19T04:58:45.367Z,518.19
2019-01-19T04:59:45.341Z,521.77
2019-01-19T05:00:45.333Z,527.16
2019-01-19T05:01:45.351Z,521.34
2019-01-19T05:02:45.425Z,527.39
2019-01-19T05:03:45.335Z,527.55
2019-01-19T05:04:45.340Z,516.77
2019-01-19T05:05:53.401Z,524.17
2019-01-19T05:06:53.088Z,523.46
2019-01-19T05:07:53.515Z,520.24
2019-01-19T05:08:53.454Z,520.13
2019-01-19T05:09:56.543Z,519.56
2019-01-19T05:10:53.145Z,513.26
2019-01-19T05:11:52.505Z,514.62
2019-01-19T05:12:45.527Z,515.05
2019-01-19T05:13:54.588Z,515.87
2019-01-19T05:14:56.091Z,522.48
2019-01-19T05:15:52.383Z,515.79
2019-01-19T05:16:45.451Z,518.59
2019-01-19T05:17:52.456Z,514.69
2019-01-19T05:18:45.391Z,522.22
2019-01-19T05:19:46.273Z,518.59
2019-01-19T05:20:45.202Z,512.85
2019-01-19T05:21:45.394Z,519.32
2019-01-19T05:22:45.164Z,516.93
2019-01-19T05:23:45.143Z,515.54
2019-01-19T05:24:45.102Z,517.89
2019-01-19T05:25:47.001Z,523.81
2019-01-19T05:26:45.092Z,518.36
2019-01-19T05:27:45.061Z,520.19
2019-01-19T05:28:45.089Z,518.70
2019-01-19T05:29:45.025Z,521.11
2019-01-19T05:30:45.048Z,512.81
2019-01-19T05:31:45.051Z,516.56
2019-01-19T05:32:45.116Z,509.43
2019-01-19T05:33:45.031Z,508.31
2019-01-19T05:34:44.996Z,516.47
2019-01-19T05:35:44.970Z,514.34
2019-01-19T05:36:45.464Z,514.96
2019-01-19T05:37:45.987Z,509.53
2019-01-19T05:38:44.965Z,506.91
2019-01-19T05:39:44.925Z,508.50
2019-01-19T05:40:44.904Z,504.01
2019-01-19T05:41:44.912Z,501.47
2019-01-19T05:43:55.641Z,497.71
2019-01-19T05:45:03.454Z,507.01
2019-01-19T05:45:55.666Z,502.33
2019-01-19T05:46:55.686Z,506.72
2019-01-19T05:47:55.624Z,513.10
2019-01-19T05:48:55.697Z,513.73
2019-01-19T05:49:55.501Z,511.35
2019-01-19T05:50:55.486Z,516.66
2019-01-19T05:51:56.461Z,513.83
2019-01-19T05:52:55.423Z,514.93
2019-01-19T05:53:55.507Z,516.95
2019-01-19T05:54:55.474Z,511.61
2019-01-19T05:55:56.940Z,511.24
2019-01-19T05:56:55.438Z,505.65
2019-01-19T05:57:55.599Z,505.39
2019-01-19T05:58:55.545Z,502.84
2019-01-19T05:59:55.364Z,503.80
2019-01-19T06:00:55.389Z,504.00
2019-01-19T06:01:55.887Z,504.92
2019-01-19T06:02:55.361Z,506.06
2019-01-19T06:03:55.491Z,504.82
2019-01-19T06:04:55.322Z,503.45
2019-01-19T06:05:55.325Z,504.29
2019-01-19T06:07:05.832Z,503.62
2019-01-19T06:08:02.992Z,503.82
2019-01-19T06:09:05.046Z,502.90
2019-01-19T06:10:03.809Z,504.57
2019-01-19T06:12:08.345Z,504.24
2019-01-19T06:13:15.486Z,510.69
2019-01-19T06:14:07.644Z,515.33
2019-01-19T06:15:07.585Z,512.49
2019-01-19T06:16:07.465Z,511.32
2019-01-19T06:17:07.540Z,512.70
2019-01-19T06:18:07.361Z,514.78
2019-01-19T06:19:07.287Z,513.37
2019-01-19T06:20:07.281Z,512.30
2019-01-19T06:21:07.286Z,512.83
2019-01-19T06:22:07.294Z,514.51
2019-01-19T06:23:07.272Z,513.87
2019-01-19T06:24:07.266Z,512.55
2019-01-19T06:25:07.263Z,516.98
2019-01-19T06:26:16.444Z,512.19
2019-01-19T06:27:07.465Z,512.40
2019-01-19T06:28:07.437Z,512.63
2019-01-19T06:29:07.383Z,511.30
2019-01-19T06:30:07.256Z,516.49
2019-01-19T06:31:07.237Z,518.12
2019-01-19T06:32:07.218Z,521.27
2019-01-19T06:33:07.224Z,515.13
2019-01-19T06:34:07.222Z,512.34
2019-01-19T06:35:07.144Z,513.50
2019-01-19T06:36:15.348Z,517.42
2019-01-19T06:37:07.472Z,514.72
2019-01-19T06:38:07.392Z,517.67
2019-01-19T06:39:07.131Z,513.03
2019-01-19T06:40:07.184Z,515.69
2019-01-19T06:41:07.109Z,517.71
2019-01-19T06:42:07.154Z,515.76
2019-01-19T06:43:07.093Z,516.80
2019-01-19T06:44:07.111Z,518.21
2019-01-19T06:45:07.074Z,519.06
2019-01-19T06:46:07.113Z,515.59
2019-01-19T06:47:07.052Z,514.68
2019-01-19T06:48:07.098Z,511.60
2019-01-19T06:49:07.028Z,513.03
2019-01-19T06:50:07.003Z,517.45
2019-01-19T06:51:07.871Z,517.94
2019-01-19T06:52:07.902Z,513.80
2019-01-19T06:53:06.979Z,519.90
2019-01-19T06:54:06.985Z,511.75
2019-01-19T06:55:07.023Z,519.52
2019-01-19T06:56:07.040Z,520.12
2019-01-19T06:57:06.958Z,511.67
2019-01-19T06:58:06.949Z,515.86
2019-01-19T06:59:06.915Z,519.34
2019-01-19T07:00:06.902Z,516.19
2019-01-19T07:01:16.066Z,519.35
2019-01-19T07:02:07.661Z,521.05
2019-01-19T07:03:07.082Z,520.71
2019-01-19T07:04:06.920Z,520.02
2019-01-19T07:05:06.966Z,524.27
2019-01-19T07:08:29.119Z,506.11
2019-01-19T07:09:37.094Z,525.58
2019-01-19T07:10:36.209Z,525.68
2019-01-19T07:11:37.288Z,524.47
2019-01-19T07:13:39.844Z,518.84
2019-01-19T07:14:39.826Z,514.45
2019-01-19T07:15:39.834Z,515.89
2019-01-19T07:16:39.680Z,516.72
2019-01-19T07:17:39.810Z,521.95
2019-01-19T07:18:39.660Z,522.36
2019-01-19T07:19:41.611Z,523.16
2019-01-19T07:20:39.611Z,530.40
2019-01-19T07:21:39.619Z,523.77
2019-01-19T07:22:40.306Z,519.24
2019-01-19T07:23:40.646Z,512.92
2019-01-19T07:24:39.966Z,518.05
2019-01-19T07:25:39.572Z,522.30
2019-01-19T07:26:39.596Z,517.85
2019-01-19T07:27:39.561Z,516.24
2019-01-19T07:28:39.566Z,518.78
2019-01-19T07:29:39.572Z,517.05
2019-01-19T07:30:40.032Z,518.94
2019-01-19T07:31:39.521Z,520.94
2019-01-19T07:32:39.585Z,517.73
2019-01-19T07:33:39.500Z,522.91
2019-01-19T07:34:40.498Z,526.03
2019-01-19T07:35:39.500Z,523.07
2019-01-19T07:36:46.822Z,518.13
2019-01-19T07:37:47.348Z,525.60
2019-01-19T07:39:05.456Z,520.10
2019-01-19T07:39:40.289Z,518.24
2019-01-19T07:40:39.482Z,519.43
2019-01-19T07:41:39.427Z,520.73
2019-01-19T07:42:39.444Z,525.50
2019-01-19T07:43:39.485Z,527.95
2019-01-19T07:44:39.366Z,521.88
2019-01-19T07:45:39.402Z,516.41
2019-01-19T07:46:39.374Z,526.14
2019-01-19T07:47:39.628Z,519.22
2019-01-19T07:48:39.327Z,514.32
2019-01-19T07:49:39.342Z,516.28
2019-01-19T07:50:39.325Z,517.17
2019-01-19T07:51:39.288Z,521.03
2019-01-19T07:52:39.336Z,511.57
2019-01-19T07:53:39.270Z,529.10
2019-01-19T07:54:39.303Z,513.27
2019-01-19T07:55:39.247Z,513.45
2019-01-19T07:56:39.234Z,514.55
2019-01-19T07:57:40.595Z,518.90
2019-01-19T07:58:39.205Z,520.12
2019-01-19T07:59:39.475Z,513.41
2019-01-19T08:00:47.324Z,514.76
2019-01-19T08:01:39.401Z,511.17
2019-01-19T08:02:39.313Z,515.82
2019-01-19T08:03:39.429Z,524.26
2019-01-19T08:04:39.203Z,514.18
2019-01-19T08:05:39.210Z,511.69
2019-01-19T08:06:40.131Z,517.23
2019-01-19T08:07:39.157Z,515.17
2019-01-19T08:08:49.010Z,508.67
2019-01-19T08:09:47.631Z,519.46
2019-01-19T08:10:39.373Z,511.30
2019-01-19T08:11:39.800Z,510.43
2019-01-19T08:12:39.195Z,524.28
2019-01-19T08:13:39.265Z,513.86
2019-01-19T08:14:39.067Z,509.55
2019-01-19T08:15:39.030Z,513.54
2019-01-19T08:16:39.113Z,512.27
2019-01-19T08:17:39.031Z,512.69
2019-01-19T08:18:39.030Z,510.92
2019-01-19T08:19:39.151Z,515.47
2019-01-19T08:20:38.987Z,510.67
2019-01-19T08:21:38.987Z,510.39
2019-01-19T08:22:39.735Z,513.40
2019-01-19T08:23:39.003Z,514.29
2019-01-19T08:24:38.971Z,513.55
2019-01-19T08:25:38.955Z,513.81
2019-01-19T08:26:38.930Z,514.69
2019-01-19T08:27:38.920Z,517.22
2019-01-19T08:29:49.870Z,511.86
2019-01-19T08:30:49.968Z,520.94
2019-01-19T08:31:49.600Z,525.77
2019-01-19T08:32:49.867Z,520.90
2019-01-19T08:33:49.564Z,521.99
2019-01-19T08:34:49.499Z,524.38
2019-01-19T08:35:49.551Z,519.06
2019-01-19T08:36:49.496Z,519.14
2019-01-19T08:37:49.505Z,524.27
2019-01-19T08:38:50.353Z,519.89
2019-01-19T08:39:58.609Z,517.75
2019-01-19T08:40:50.236Z,519.47
2019-01-19T08:43:18.929Z,517.23
2019-01-19T08:45:58.490Z,521.41
2019-01-19T08:50:17.815Z,499.00
2019-01-19T08:51:26.253Z,509.92
2019-01-19T08:53:34.250Z,507.27
2019-01-19T08:54:44.614Z,508.52
2019-01-19T08:55:43.171Z,508.33
2019-01-19T08:56:42.712Z,514.03
2019-01-19T08:57:44.166Z,512.16
2019-01-19T08:58:41.189Z,509.63
2019-01-19T08:59:41.966Z,511.26
2019-01-19T09:00:34.101Z,510.68
2019-01-19T09:01:33.922Z,507.88
2019-01-19T09:02:33.957Z,506.40
2019-01-19T09:03:41.967Z,512.64
2019-01-19T09:04:40.956Z,509.00
2019-01-19T09:05:41.785Z,515.59
2019-01-19T09:06:50.973Z,519.22
2019-01-19T09:07:44.913Z,513.60
2019-01-19T09:08:34.125Z,514.33
2019-01-19T09:09:34.976Z,511.42
2019-01-19T09:10:33.837Z,515.34
2019-01-19T09:11:33.864Z,511.17
2019-01-19T09:12:33.715Z,514.80
2019-01-19T09:13:33.730Z,513.78
2019-01-19T09:16:03.472Z,515.79
2019-01-19T09:17:03.452Z,513.10
2019-01-19T09:18:03.299Z,510.79
2019-01-19T09:19:03.266Z,511.50
2019-01-19T09:20:03.449Z,513.21
2019-01-19T09:21:03.185Z,506.81
2019-01-19T09:22:03.206Z,512.99
2019-01-19T09:23:03.192Z,510.90
2019-01-19T09:24:03.160Z,515.50
2019-01-19T09:25:03.134Z,509.84
2019-01-19T09:26:03.173Z,511.17
2019-01-19T09:27:03.115Z,508.84
2019-01-19T09:28:03.178Z,511.57
2019-01-19T09:29:03.668Z,512.83
2019-01-19T09:30:03.667Z,510.12
2019-01-19T09:31:03.145Z,510.10
2019-01-19T09:32:03.680Z,510.83
2019-01-19T09:33:03.718Z,504.36
2019-01-19T09:34:03.043Z,514.22
2019-01-19T09:35:03.067Z,514.82
2019-01-19T09:36:03.741Z,510.43
2019-01-19T09:37:03.019Z,509.23
2019-01-19T09:38:03.015Z,515.75
2019-01-19T09:39:02.999Z,513.62
2019-01-19T09:40:03.015Z,506.72
2019-01-19T09:41:02.972Z,511.46
2019-01-19T09:42:03.658Z,508.19
2019-01-19T09:43:02.995Z,511.48
2019-01-19T09:44:02.974Z,510.19
2019-01-19T09:45:02.947Z,507.60
2019-01-19T09:46:02.891Z,514.25
2019-01-19T09:47:02.993Z,504.86
2019-01-19T09:48:02.942Z,508.95
2019-01-19T09:49:03.687Z,508.14
2019-01-19T09:50:02.909Z,511.61
2019-01-19T09:51:02.838Z,508.34
2019-01-19T09:52:02.832Z,510.80
2019-01-19T09:53:04.676Z,504.71
2019-01-19T09:54:02.824Z,510.04
2019-01-19T09:55:02.797Z,508.88
2019-01-19T09:56:02.808Z,500.59
2019-01-19T09:57:02.769Z,504.73
2019-01-19T09:58:02.760Z,505.35
2019-01-19T09:59:02.767Z,513.94
2019-01-19T10:00:03.635Z,504.17
2019-01-19T10:01:02.735Z,504.88
2019-01-19T10:02:02.740Z,512.95
2019-01-19T10:03:02.735Z,512.13
2019-01-19T10:04:02.720Z,510.78
2019-01-19T10:05:02.684Z,507.00
2019-01-19T10:06:02.697Z,504.22
2019-01-19T10:07:10.880Z,505.69
2019-01-19T10:08:02.817Z,506.59
2019-01-19T10:09:02.788Z,505.28
2019-01-19T10:10:02.755Z,503.21
2019-01-19T10:11:02.743Z,497.85
2019-01-19T10:12:03.329Z,513.58
2019-01-19T10:13:02.946Z,505.53
2019-01-19T10:14:03.247Z,506.66
2019-01-19T10:15:02.645Z,501.17
2019-01-19T10:16:02.646Z,497.24
2019-01-19T10:17:03.251Z,503.20
2019-01-19T10:18:04.289Z,501.82
2019-01-19T10:19:03.202Z,492.30
2019-01-19T10:20:16.522Z,499.93
2019-01-19T10:21:11.698Z,505.43
2019-01-19T10:22:11.915Z,502.34
2019-01-19T10:23:10.779Z,497.39
2019-01-19T10:24:02.600Z,505.02
2019-01-19T10:25:02.620Z,507.97
2019-01-19T10:26:02.716Z,496.27
2019-01-19T10:27:03.480Z,506.13
2019-01-19T10:28:02.499Z,508.27
2019-01-19T10:29:02.467Z,511.68
2019-01-19T10:30:02.444Z,506.88
2019-01-19T10:31:02.421Z,504.44
2019-01-19T10:32:02.431Z,507.64
2019-01-19T10:33:02.376Z,505.82
2019-01-19T10:34:02.400Z,505.20
2019-01-19T10:35:02.373Z,498.12
2019-01-19T10:36:02.349Z,498.04
2019-01-19T10:37:02.353Z,491.59
2019-01-19T10:38:02.337Z,503.76
2019-01-19T10:39:03.251Z,503.56
2019-01-19T10:40:03.327Z,504.01
2019-01-19T10:41:02.334Z,493.43
2019-01-19T10:42:03.117Z,493.97
2019-01-19T10:43:02.311Z,514.04
2019-01-19T10:44:03.316Z,489.23
2019-01-19T10:45:02.264Z,512.79
2019-01-19T10:46:02.779Z,505.82
2019-01-19T10:47:02.250Z,502.91
2019-01-19T10:48:02.230Z,494.86
2019-01-19T10:49:02.246Z,501.72
2019-01-19T10:50:02.215Z,498.65
2019-01-19T10:51:02.207Z,501.34
2019-01-19T10:52:02.226Z,502.32
2019-01-19T10:53:02.187Z,507.63
2019-01-19T10:54:02.203Z,503.09
2019-01-19T10:55:02.191Z,496.90
2019-01-19T10:56:02.144Z,501.21
2019-01-19T10:57:02.137Z,502.63
2019-01-19T10:58:02.123Z,502.32
2019-01-19T10:59:02.141Z,504.21
2019-01-19T11:00:02.247Z,509.43
2019-01-19T11:01:02.096Z,496.25
2019-01-19T11:02:02.796Z,492.26
2019-01-19T11:03:02.067Z,513.08
2019-01-19T11:04:05.484Z,495.96
2019-01-19T11:05:03.160Z,492.06
2019-01-19T11:06:02.177Z,494.07
2019-01-19T11:07:02.964Z,504.31
2019-01-19T11:08:03.942Z,499.54
2019-01-19T11:09:03.848Z,489.48
2019-01-19T11:10:03.031Z,478.01
2019-01-19T11:11:02.075Z,512.21
2019-01-19T11:12:02.222Z,500.65
2019-01-19T11:13:02.820Z,486.78
2019-01-19T11:14:02.173Z,502.46
2019-01-19T11:15:02.837Z,500.62
2019-01-19T11:16:02.143Z,511.16
2019-01-19T11:17:16.982Z,485.88
2019-01-19T11:18:03.734Z,505.71
2019-01-19T11:19:13.256Z,504.51
2019-01-19T11:20:02.392Z,497.95
2019-01-19T11:22:36.977Z,493.68
2019-01-19T11:23:39.919Z,469.68
2019-01-19T11:24:38.671Z,522.14
2019-01-19T11:25:37.511Z,502.89
2019-01-19T11:26:36.519Z,495.23
2019-01-19T11:27:35.890Z,500.75
2019-01-19T11:28:46.212Z,515.48
2019-01-19T11:29:44.253Z,521.13
2019-01-19T11:32:07.940Z,500.47
2019-01-19T11:33:08.024Z,501.29
2019-01-19T11:34:08.950Z,509.41
2019-01-19T11:35:07.776Z,503.44
2019-01-19T11:36:07.934Z,515.90
2019-01-19T11:37:07.796Z,506.17
2019-01-19T11:38:11.860Z,496.49
2019-01-19T11:39:07.729Z,511.44
2019-01-19T11:40:07.723Z,497.39
2019-01-19T11:41:07.724Z,489.54
2019-01-19T11:42:07.724Z,510.76
2019-01-19T11:43:08.250Z,502.15
2019-01-19T11:44:09.313Z,508.04
2019-01-19T11:45:07.698Z,500.58
2019-01-19T11:46:07.689Z,503.85
2019-01-19T11:47:07.726Z,504.46
2019-01-19T11:48:07.674Z,488.52
2019-01-19T11:49:07.742Z,509.30
2019-01-19T11:50:08.321Z,480.55
2019-01-19T11:51:08.756Z,509.07
2019-01-19T11:52:07.595Z,512.44
2019-01-19T11:53:07.582Z,489.43
2019-01-19T11:54:07.628Z,494.79
2019-01-19T11:55:07.616Z,493.74
2019-01-19T11:56:12.238Z,508.56
2019-01-19T11:57:14.816Z,510.45
2019-01-19T11:58:08.204Z,510.85
2019-01-19T11:59:16.340Z,506.73
2019-01-19T12:00:07.578Z,479.60
2019-01-19T12:01:19.385Z,496.36
2019-01-19T12:02:15.463Z,508.21
2019-01-19T12:03:15.650Z,500.74
2019-01-19T12:04:15.595Z,504.12
2019-01-19T12:05:15.549Z,508.04
2019-01-19T12:06:16.043Z,503.93
2019-01-19T12:07:18.444Z,512.48
2019-01-19T12:08:07.844Z,504.37
2019-01-19T12:09:07.588Z,495.67
2019-01-19T12:10:14.861Z,501.70
2019-01-19T12:11:07.620Z,499.88
2019-01-19T12:12:07.771Z,500.09
2019-01-19T12:13:07.453Z,505.41
2019-01-19T12:14:07.642Z,504.40
2019-01-19T12:15:09.128Z,506.87
2019-01-19T12:16:07.386Z,501.85
2019-01-19T12:17:07.350Z,497.97
2019-01-19T12:18:07.320Z,501.48
2019-01-19T12:19:07.311Z,504.53
2019-01-19T12:20:07.303Z,501.09
2019-01-19T12:21:16.100Z,512.53
2019-01-19T12:22:07.416Z,506.72
2019-01-19T12:23:07.605Z,500.66
2019-01-19T12:24:08.040Z,507.62
2019-01-19T12:25:07.540Z,478.67
2019-01-19T12:26:07.253Z,510.02
2019-01-19T12:27:07.331Z,505.31
2019-01-19T12:28:07.200Z,481.41
2019-01-19T12:29:07.223Z,490.19
2019-01-19T12:30:07.358Z,499.32
2019-01-19T12:31:07.177Z,497.51
2019-01-19T12:32:07.183Z,506.29
2019-01-19T12:33:07.166Z,503.43
2019-01-19T12:34:14.221Z,504.79
2019-01-19T12:35:07.659Z,495.96
2019-01-19T12:38:28.763Z,487.56
2019-01-19T12:39:29.251Z,502.82
2019-01-19T12:40:28.445Z,503.63
2019-01-19T12:41:28.783Z,507.22
2019-01-19T12:42:28.449Z,510.77
2019-01-19T12:43:36.262Z,498.40
2019-01-19T12:47:54.020Z,504.94
2019-01-19T12:50:20.289Z,502.70
2019-01-19T12:54:00.287Z,502.66
2019-01-19T12:55:12.356Z,506.68
2019-01-19T12:56:29.703Z,506.09
2019-01-19T12:58:45.635Z,508.55
2019-01-19T13:02:14.268Z,499.10
2019-01-19T13:03:13.572Z,507.34
2019-01-19T13:04:13.577Z,505.65
2019-01-19T13:05:13.117Z,506.43
2019-01-19T13:06:13.609Z,511.93
2019-01-19T13:07:13.083Z,507.06
2019-01-19T13:08:13.885Z,511.59
2019-01-19T13:09:13.000Z,507.79
2019-01-19T13:10:13.039Z,505.66
2019-01-19T13:12:25.100Z,502.31
2019-01-19T13:13:24.970Z,507.91
2019-01-19T13:14:24.682Z,507.41